Time;durP1;ratioP1;P1;durP2;ratioP2;P2;SDS_P1;SDS_P2;PMS_P1;PMS_P2;Temp;Humidity;BMP_temperature;BMP_pressure;BME280_temperature;BME280_humidity;BME280_pressure;Samples;Min_cycle;Max_cycle;Signal;HPM_P1;HPM_P2
2022/03/08 00:00:31;;;;;;;25.65;13.55;;;;;;;-0.11;72.12;102200.88;5072313;28;20120;-69
2022/03/08 00:02:58;;;;;;;25.92;13.48;;;;;;;-0.08;71.04;102203.66;5068214;28;20016;-70
2022/03/08 00:05:23;;;;;;;25.52;13.18;;;;;;;-0.12;71.82;102202.53;5072158;28;20036;-70
2022/03/08 00:07:50;;;;;;;26.17;12.88;;;;;;;-0.19;71.45;102197.72;5072502;28;20027;-70
2022/03/08 00:10:16;;;;;;;26.45;13.32;;;;;;;-0.09;72.64;102197.53;5075078;28;20462;-70
2022/03/08 00:12:42;;;;;;;24.55;12.93;;;;;;;-0.19;72.58;102192.50;5076294;28;20032;-70
2022/03/08 00:15:12;;;;;;;25.13;13.20;;;;;;;-0.27;72.91;102202.38;5075666;28;20036;-70
2022/03/08 00:17:38;;;;;;;25.77;12.80;;;;;;;-0.24;73.53;102193.91;5075606;28;20464;-70
2022/03/08 00:20:09;;;;;;;24.52;12.90;;;;;;;-0.26;72.87;102195.47;5075775;28;20082;-70
2022/03/08 00:22:37;;;;;;;24.23;12.98;;;;;;;-0.27;72.49;102194.59;5075664;28;20480;-69
2022/03/08 00:25:03;;;;;;;25.08;13.02;;;;;;;-0.26;72.35;102198.06;5075518;28;20025;-69
2022/03/08 00:27:29;;;;;;;25.17;13.13;;;;;;;-0.30;71.96;102196.09;5075507;28;20487;-69
2022/03/08 00:29:55;;;;;;;25.75;13.20;;;;;;;-0.30;73.33;102188.28;5075759;28;20071;-69
2022/03/08 00:32:21;;;;;;;25.75;13.05;;;;;;;-0.37;72.32;102198.22;5075505;28;20025;-69
2022/03/08 00:34:47;;;;;;;24.38;12.93;;;;;;;-0.44;72.53;102187.31;5075260;28;20149;-69
2022/03/08 00:37:12;;;;;;;24.70;12.70;;;;;;;-0.49;73.49;102180.91;5075559;28;20033;-69
2022/03/08 00:39:37;;;;;;;24.33;13.10;;;;;;;-0.52;73.32;102184.19;5075476;28;20055;-69
2022/03/08 00:42:03;;;;;;;24.83;12.60;;;;;;;-0.44;73.21;102195.09;5075558;28;20024;-69
2022/03/08 00:44:29;;;;;;;24.85;13.00;;;;;;;-0.49;73.26;102184.38;5075318;28;20032;-70
2022/03/08 00:46:54;;;;;;;24.40;12.45;;;;;;;-0.55;72.97;102187.44;5075195;28;20226;-69
2022/03/08 00:49:20;;;;;;;24.20;12.98;;;;;;;-0.60;73.39;102187.91;5075411;28;20028;-69
2022/03/08 00:51:45;;;;;;;25.10;12.00;;;;;;;-0.59;72.99;102180.22;5075199;28;20056;-69
2022/03/08 00:54:10;;;;;;;25.23;12.93;;;;;;;-0.55;72.95;102181.38;5074947;28;20035;-69
2022/03/08 00:56:36;;;;;;;24.05;12.63;;;;;;;-0.61;72.21;102188.69;5075204;28;20035;-70
2022/03/08 00:59:01;;;;;;;23.17;12.10;;;;;;;-0.63;72.40;102182.50;5075013;28;20028;-69
2022/03/08 01:01:27;;;;;;;24.58;11.68;;;;;;;-0.58;71.64;102184.63;5070914;28;20029;-69
2022/03/08 01:03:52;;;;;;;24.15;11.88;;;;;;;-0.56;71.66;102188.22;5075110;28;20447;-69
2022/03/08 01:06:17;;;;;;;24.27;12.18;;;;;;;-0.55;71.49;102187.44;5074655;28;20047;-70
2022/03/08 01:08:43;;;;;;;24.58;11.55;;;;;;;-0.50;71.20;102184.28;5074784;28;20487;-69
2022/03/08 01:11:08;;;;;;;23.85;11.80;;;;;;;-0.49;70.00;102181.78;5074872;28;20604;-70
2022/03/08 01:13:33;;;;;;;23.25;11.38;;;;;;;-0.39;69.48;102181.63;5074573;28;20025;-68
2022/03/08 01:15:59;;;;;;;23.45;11.43;;;;;;;-0.43;68.97;102176.13;5074961;28;20112;-69
2022/03/08 01:18:24;;;;;;;25.10;11.63;;;;;;;-0.38;68.33;102179.94;5074764;28;20024;-69
2022/03/08 01:20:50;;;;;;;23.73;11.32;;;;;;;-0.36;69.30;102186.16;5074390;28;20020;-69
2022/03/08 01:23:16;;;;;;;23.55;11.40;;;;;;;-0.38;68.66;102186.06;5074724;28;20029;-69
2022/03/08 01:25:41;;;;;;;23.98;11.60;;;;;;;-0.40;69.88;102177.22;5074361;28;20039;-69
2022/03/08 01:28:08;;;;;;;23.25;11.40;;;;;;;-0.42;68.41;102178.81;5074657;28;20029;-69
2022/03/08 01:30:33;;;;;;;23.30;11.05;;;;;;;-0.43;67.76;102177.00;5074627;28;20020;-69
2022/03/08 01:32:59;;;;;;;23.63;11.25;;;;;;;-0.47;67.98;102171.50;5074550;28;20035;-69
2022/03/08 01:35:24;;;;;;;24.17;11.60;;;;;;;-0.47;68.40;102174.09;5074247;28;20032;-69
2022/03/08 01:37:51;;;;;;;23.83;11.10;;;;;;;-0.49;67.67;102163.59;5074384;28;20020;-69
2022/03/08 01:40:16;;;;;;;23.90;11.45;;;;;;;-0.54;68.36;102167.56;5074224;28;20356;-68
2022/03/08 01:42:48;;;;;;;22.95;11.00;;;;;;;-0.60;68.46;102161.94;5074077;28;20086;-70
2022/03/08 01:45:16;;;;;;;23.73;11.45;;;;;;;-0.64;68.78;102154.72;5074550;28;20502;-70
2022/03/08 01:47:41;;;;;;;24.20;11.75;;;;;;;-0.68;68.74;102153.63;5073903;28;20031;-70
2022/03/08 01:50:08;;;;;;;22.85;11.48;;;;;;;-0.69;69.03;102153.50;5073999;28;20021;-69
2022/03/08 01:52:34;;;;;;;23.65;11.57;;;;;;;-0.69;68.25;102146.59;5074106;28;20037;-69
2022/03/08 01:54:59;;;;;;;24.17;11.52;;;;;;;-0.68;68.06;102147.50;5073783;28;20031;-69
2022/03/08 01:57:25;;;;;;;24.45;11.73;;;;;;;-0.68;67.65;102138.03;5074013;28;20032;-70
2022/03/08 01:59:52;;;;;;;24.30;11.73;;;;;;;-0.63;67.91;102144.44;5073965;28;20024;-70
2022/03/08 02:02:18;;;;;;;24.13;11.73;;;;;;;-0.64;68.08;102139.13;5074009;28;20099;-70
2022/03/08 02:04:45;;;;;;;23.83;11.02;;;;;;;-0.61;66.99;102140.25;5073551;28;20091;-71
2022/03/08 02:07:10;;;;;;;24.13;11.77;;;;;;;-0.61;67.23;102135.06;5073793;28;20021;-72
2022/03/08 02:09:36;;;;;;;23.35;11.80;;;;;;;-0.64;67.22;102129.66;5073538;28;20098;-70
2022/03/08 02:12:02;;;;;;;23.65;12.00;;;;;;;-0.69;67.64;102118.03;5073751;28;20029;-70
2022/03/08 02:14:27;;;;;;;23.23;11.60;;;;;;;-0.70;67.39;102118.81;5069677;28;20025;-70
2022/03/08 02:16:53;;;;;;;23.70;11.63;;;;;;;-0.68;66.69;102122.44;5073541;28;20025;-70
2022/03/08 02:19:18;;;;;;;23.52;11.68;;;;;;;-0.64;66.86;102110.56;5073337;28;20438;-71
2022/03/08 02:21:44;;;;;;;23.05;11.35;;;;;;;-0.64;66.08;102110.56;5073572;28;20391;-69
2022/03/08 02:24:10;;;;;;;23.48;11.40;;;;;;;-0.66;67.25;102123.44;5073277;28;20108;-69
2022/03/08 02:26:36;;;;;;;23.80;11.75;;;;;;;-0.71;67.46;102122.22;5073416;28;20441;-70
2022/03/08 02:29:03;;;;;;;23.13;11.73;;;;;;;-0.71;67.30;102117.94;5073619;28;20024;-69
2022/03/08 02:31:30;;;;;;;23.30;12.07;;;;;;;-0.72;66.77;102120.41;5069034;28;20559;-70
2022/03/08 02:33:55;;;;;;;25.98;12.02;;;;;;;-0.76;67.03;102114.13;5073108;28;20036;-70
2022/03/08 02:36:20;;;;;;;23.63;11.85;;;;;;;-0.84;66.68;102098.78;5073481;28;20032;-69
2022/03/08 02:38:46;;;;;;;24.23;11.88;;;;;;;-0.79;66.77;102102.59;5073021;28;20577;-69
2022/03/08 02:41:11;;;;;;;23.35;11.85;;;;;;;-0.78;66.23;102105.31;5073472;28;20028;-69
2022/03/08 02:43:36;;;;;;;23.98;11.90;;;;;;;-0.80;66.69;102106.91;5072922;28;20032;-70
2022/03/08 02:46:02;;;;;;;24.33;11.70;;;;;;;-0.86;66.91;102102.97;5073035;28;20090;-69
2022/03/08 02:48:28;;;;;;;24.15;12.18;;;;;;;-0.92;66.99;102100.81;5073240;28;20036;-69
2022/03/08 02:50:55;;;;;;;25.30;11.95;;;;;;;-0.94;67.19;102102.44;5072855;28;20025;-69
2022/03/08 02:53:21;;;;;;;23.52;12.30;;;;;;;-0.99;67.55;102093.38;5072798;28;20036;-70
2022/03/08 02:55:46;;;;;;;24.05;12.45;;;;;;;-1.03;67.46;102096.56;5073215;28;20082;-70
2022/03/08 02:58:13;;;;;;;24.45;12.77;;;;;;;-1.04;67.68;102089.59;5072652;28;20469;-70
2022/03/08 03:00:38;;;;;;;24.40;12.02;;;;;;;-1.04;68.14;102089.59;5072790;28;20024;-69
2022/03/08 03:03:05;;;;;;;24.80;12.38;;;;;;;-1.00;67.58;102078.63;5072840;28;20025;-70
2022/03/08 03:05:30;;;;;;;23.80;11.93;;;;;;;-1.04;68.18;102080.09;5072537;28;20052;-69
2022/03/08 03:07:56;;;;;;;24.00;12.43;;;;;;;-1.08;67.98;102081.59;5072627;28;20032;-69
2022/03/08 03:10:23;;;;;;;25.42;12.48;;;;;;;-1.10;68.15;102075.34;5073072;28;20017;-70
2022/03/08 03:12:49;;;;;;;23.92;12.80;;;;;;;-1.10;68.02;102075.34;5072459;28;20364;-70
2022/03/08 03:15:16;;;;;;;24.25;12.35;;;;;;;-1.12;68.20;102065.66;5072503;28;20063;-70
2022/03/08 03:17:43;;;;;;;24.48;12.18;;;;;;;-1.13;68.23;102064.75;5072814;28;20585;-71
2022/03/08 03:20:10;;;;;;;24.40;12.50;;;;;;;-1.14;68.77;102065.53;5072853;28;20029;-70
2022/03/08 03:22:36;;;;;;;23.83;12.80;;;;;;;-1.15;68.48;102058.56;5072323;28;20025;-71
2022/03/08 03:25:02;;;;;;;24.90;13.00;;;;;;;-1.14;68.65;102060.34;5071369;28;20056;-71
2022/03/08 03:27:27;;;;;;;24.33;12.85;;;;;;;-1.15;68.01;102049.88;5067749;28;20029;-71
2022/03/08 03:29:53;;;;;;;24.42;12.73;;;;;;;-1.19;68.12;102038.38;5071657;28;20036;-70
2022/03/08 03:32:19;;;;;;;25.30;13.20;;;;;;;-1.26;69.09;102037.03;5072625;28;20134;-71
2022/03/08 03:34:45;;;;;;;25.23;13.10;;;;;;;-1.30;69.12;102042.78;5072579;28;20043;-71
2022/03/08 03:37:10;;;;;;;24.90;12.95;;;;;;;-1.39;70.15;102039.53;5072333;28;20055;-71
2022/03/08 03:39:36;;;;;;;24.60;12.48;;;;;;;-1.38;70.04;102036.16;5072580;28;20071;-70
2022/03/08 03:42:01;;;;;;;24.40;13.00;;;;;;;-1.37;70.02;102031.88;5072360;28;20052;-70
2022/03/08 03:44:27;;;;;;;24.50;13.02;;;;;;;-1.34;70.21;102037.28;5074086;28;20035;-70
2022/03/08 03:46:52;;;;;;;24.13;12.50;;;;;;;-1.33;69.85;102032.19;5076588;28;20075;-71
2022/03/08 03:49:18;;;;;;;23.90;13.07;;;;;;;-1.32;69.79;102035.72;5076266;28;20379;-71
2022/03/08 03:51:43;;;;;;;23.75;12.52;;;;;;;-1.31;69.60;102040.09;5076422;28;20040;-70
2022/03/08 03:54:08;;;;;;;25.17;13.18;;;;;;;-1.31;70.13;102043.59;5076446;28;20094;-70
2022/03/08 03:56:33;;;;;;;24.17;12.57;;;;;;;-1.32;70.47;102046.09;5076226;28;20029;-70
2022/03/08 03:58:59;;;;;;;25.63;12.57;;;;;;;-1.40;70.83;102042.91;5076270;28;20028;-69
2022/03/08 04:01:25;;;;;;;25.13;13.10;;;;;;;-1.37;70.53;102043.13;5076033;28;20032;-69
2022/03/08 04:03:50;;;;;;;24.92;12.55;;;;;;;-1.37;71.10;102039.66;5076011;28;20128;-70
2022/03/08 04:06:15;;;;;;;27.50;12.75;;;;;;;-1.38;71.01;102040.44;5076012;28;20398;-71
2022/03/08 04:08:41;;;;;;;25.52;13.00;;;;;;;-1.47;72.11;102031.22;5075910;28;20052;-71
2022/03/08 04:11:06;;;;;;;25.00;13.52;;;;;;;-1.49;71.84;102030.19;5075762;28;20021;-70
2022/03/08 04:13:31;;;;;;;24.95;12.93;;;;;;;-1.52;72.28;102031.69;5076078;28;20078;-69
2022/03/08 04:15:57;;;;;;;24.95;13.27;;;;;;;-1.52;73.28;102036.88;5075677;28;20024;-70
2022/03/08 04:18:22;;;;;;;25.10;13.25;;;;;;;-1.58;73.71;102034.72;5075964;28;20021;-70
2022/03/08 04:20:47;;;;;;;25.45;13.50;;;;;;;-1.62;73.05;102033.59;5075625;28;20028;-71
2022/03/08 04:23:13;;;;;;;25.73;13.65;;;;;;;-1.66;73.34;102034.19;5075686;28;20025;-71
2022/03/08 04:25:38;;;;;;;23.92;12.90;;;;;;;-1.69;73.83;102036.56;5075796;28;20055;-70
2022/03/08 04:28:05;;;;;;;26.13;13.10;;;;;;;-1.73;73.62;102031.00;5075630;28;20017;-69
2022/03/08 04:30:31;;;;;;;25.27;13.63;;;;;;;-1.76;74.34;102024.81;5071566;28;20025;-69
2022/03/08 04:32:56;;;;;;;24.27;12.95;;;;;;;-1.79;74.81;102027.19;5075610;28;20034;-69
2022/03/08 04:35:22;;;;;;;25.30;13.60;;;;;;;-1.82;75.05;102032.16;5075311;28;20024;-70
2022/03/08 04:37:48;;;;;;;24.80;14.00;;;;;;;-1.92;75.70;102032.28;5075357;28;20052;-70
2022/03/08 04:40:14;;;;;;;25.30;13.82;;;;;;;-1.96;77.08;102028.53;5075824;28;20463;-69
2022/03/08 04:42:40;;;;;;;25.50;14.02;;;;;;;-1.99;77.47;102032.59;5075244;28;20552;-70
2022/03/08 04:45:07;;;;;;;25.15;14.13;;;;;;;-2.02;77.49;102028.09;5075175;28;20486;-70
2022/03/08 04:47:35;;;;;;;25.45;14.27;;;;;;;-2.03;77.64;102028.88;5075422;28;20040;-70
2022/03/08 04:50:01;;;;;;;24.98;13.93;;;;;;;-2.05;77.73;102021.75;5071254;28;20024;-71
2022/03/08 04:52:26;;;;;;;25.90;13.88;;;;;;;-2.08;77.64;102022.47;5075131;28;20024;-71
2022/03/08 04:54:51;;;;;;;25.83;14.43;;;;;;;-2.08;78.86;102027.63;5074784;28;20071;-71
2022/03/08 04:57:17;;;;;;;25.85;14.13;;;;;;;-2.06;78.27;102030.34;5075302;28;20024;-71
2022/03/08 04:59:42;;;;;;;25.88;13.95;;;;;;;-2.12;78.75;102031.69;5074959;28;20051;-70
2022/03/08 05:02:07;;;;;;;27.05;14.43;;;;;;;-2.23;79.86;102022.19;5075021;28;20053;-71
2022/03/08 05:04:33;;;;;;;26.27;14.73;;;;;;;-2.25;81.34;102028.06;5075046;28;20076;-71
2022/03/08 05:06:58;;;;;;;26.45;14.73;;;;;;;-2.36;81.34;102024.66;5075104;28;20492;-71
2022/03/08 05:09:23;;;;;;;25.55;14.02;;;;;;;-2.33;82.52;102019.69;5074867;28;20543;-71
2022/03/08 05:11:51;;;;;;;26.50;14.02;;;;;;;-2.33;81.67;102025.81;5074764;28;20060;-71
2022/03/08 05:14:16;;;;;;;26.20;14.40;;;;;;;-2.26;81.54;102026.25;5075095;28;20136;-71
2022/03/08 05:16:42;;;;;;;26.98;13.80;;;;;;;-2.18;80.44;102025.16;5074896;28;20456;-70
2022/03/08 05:19:07;;;;;;;25.90;13.82;;;;;;;-2.19;81.04;102021.63;5074581;28;20111;-71
2022/03/08 05:21:33;;;;;;;26.73;14.25;;;;;;;-2.16;81.73;102019.28;5074763;28;20031;-71
2022/03/08 05:23:58;;;;;;;26.00;14.07;;;;;;;-2.20;82.01;102021.53;5074499;28;20411;-71
2022/03/08 05:26:23;;;;;;;26.13;14.15;;;;;;;-2.28;82.30;102019.25;5074490;28;20460;-71
2022/03/08 05:28:48;;;;;;;26.77;14.60;;;;;;;-2.31;82.72;102007.78;5074691;28;20119;-71
2022/03/08 05:31:14;;;;;;;26.58;14.60;;;;;;;-2.32;83.25;102006.84;5074671;28;20101;-71
2022/03/08 05:33:40;;;;;;;28.15;14.88;;;;;;;-2.36;84.49;102009.09;5074007;28;20099;-71
2022/03/08 05:36:06;;;;;;;26.55;14.75;;;;;;;-2.36;84.46;102014.28;5074487;28;20032;-71
2022/03/08 05:38:31;;;;;;;25.85;14.52;;;;;;;-2.35;84.81;102003.16;5074344;28;20450;-71
2022/03/08 05:40:57;;;;;;;27.05;14.35;;;;;;;-2.28;83.78;102003.72;5074319;28;20100;-71
2022/03/08 05:43:23;;;;;;;26.98;14.25;;;;;;;-2.21;83.41;102009.34;5074311;28;20391;-71
2022/03/08 05:45:48;;;;;;;26.23;14.18;;;;;;;-2.16;83.04;102010.59;5072711;28;20072;-71
2022/03/08 05:48:13;;;;;;;25.50;14.30;;;;;;;-2.16;82.90;102019.28;5074046;28;20029;-70
2022/03/08 05:50:39;;;;;;;25.77;14.27;;;;;;;-2.15;82.68;102010.72;5074415;28;20040;-71
2022/03/08 05:53:04;;;;;;;26.27;14.23;;;;;;;-2.15;83.38;102005.53;5074170;28;20020;-70
2022/03/08 05:55:29;;;;;;;25.45;13.30;;;;;;;-2.17;82.94;102009.72;5074298;28;20439;-71
2022/03/08 05:57:55;;;;;;;26.13;14.43;;;;;;;-2.14;83.16;102007.34;5073696;28;20048;-71
2022/03/08 06:00:20;;;;;;;26.75;14.05;;;;;;;-2.13;81.93;102006.53;5073809;28;20033;-71
2022/03/08 06:02:46;;;;;;;24.85;13.50;;;;;;;-2.13;82.21;102003.94;5073786;28;20031;-71
2022/03/08 06:05:11;;;;;;;27.30;14.13;;;;;;;-2.14;82.74;102002.16;5073133;28;20041;-70
2022/03/08 06:07:37;;;;;;;26.45;13.73;;;;;;;-2.11;81.23;102006.69;5072821;28;20044;-70
2022/03/08 06:10:04;;;;;;;26.88;14.43;;;;;;;-2.06;81.80;102007.91;5073804;28;20033;-70
2022/03/08 06:12:29;;;;;;;25.70;13.90;;;;;;;-2.07;81.95;102008.69;5073532;28;20360;-70
2022/03/08 06:14:54;;;;;;;25.40;13.82;;;;;;;-2.08;82.62;102009.50;5073498;28;20039;-69
2022/03/08 06:17:20;;;;;;;26.13;14.43;;;;;;;-2.07;82.47;102011.28;5073664;28;20020;-70
2022/03/08 06:19:45;;;;;;;26.17;13.80;;;;;;;-2.04;82.09;102005.44;5073370;28;20020;-70
2022/03/08 06:22:10;;;;;;;25.98;13.65;;;;;;;-2.03;81.78;102009.84;5069622;28;20016;-69
2022/03/08 06:24:36;;;;;;;26.23;14.38;;;;;;;-2.02;83.01;102006.47;5064179;28;20094;-70
2022/03/08 06:27:01;;;;;;;25.88;14.10;;;;;;;-2.02;81.47;102007.34;5064583;28;20032;-69
2022/03/08 06:29:27;;;;;;;26.55;14.48;;;;;;;-1.94;82.29;102011.41;5062104;28;20020;-71
2022/03/08 06:31:52;;;;;;;25.90;13.80;;;;;;;-1.88;80.84;102015.22;5064426;28;20020;-70
2022/03/08 06:34:17;;;;;;;25.88;14.13;;;;;;;-1.85;80.60;102011.19;5064851;28;20407;-70
2022/03/08 06:36:43;;;;;;;24.98;13.95;;;;;;;-1.79;80.43;102005.53;5065244;28;20055;-70
2022/03/08 06:39:08;;;;;;;25.13;14.05;;;;;;;-1.76;80.65;102006.66;5063525;28;20028;-69
2022/03/08 06:41:34;;;;;;;26.48;14.95;;;;;;;-1.72;80.12;102007.78;5063486;28;20032;-70
2022/03/08 06:44:00;;;;;;;24.02;13.00;;;;;;;-1.62;78.75;102009.34;5064208;28;20029;-70
2022/03/08 06:46:25;;;;;;;26.23;14.13;;;;;;;-1.58;79.06;102007.09;5064074;28;20511;-70
2022/03/08 06:48:51;;;;;;;25.70;13.82;;;;;;;-1.53;78.54;102003.94;5063592;28;20059;-70
2022/03/08 06:51:16;;;;;;;25.52;13.68;;;;;;;-1.51;78.89;102015.34;5064342;28;20029;-71
2022/03/08 06:53:42;;;;;;;25.00;13.70;;;;;;;-1.49;78.63;102013.75;5062443;28;20384;-70
2022/03/08 06:56:07;;;;;;;25.33;13.85;;;;;;;-1.46;78.51;102014.84;5064028;28;20029;-71
2022/03/08 06:58:32;;;;;;;26.23;14.50;;;;;;;-1.34;77.87;102014.84;5061129;28;20683;-71
2022/03/08 07:00:58;;;;;;;27.10;13.85;;;;;;;-1.19;76.01;102006.31;5064157;28;20048;-69
2022/03/08 07:03:23;;;;;;;24.95;13.50;;;;;;;-1.12;75.79;102012.06;5062379;28;20048;-68
2022/03/08 07:05:48;;;;;;;25.20;13.70;;;;;;;-1.03;74.69;102001.44;5063813;28;20051;-68
2022/03/08 07:08:14;;;;;;;25.27;13.60;;;;;;;-0.91;74.56;102009.16;5063173;28;20521;-70
2022/03/08 07:10:39;;;;;;;25.10;13.10;;;;;;;-0.83;73.36;101997.63;5064537;28;20044;-70
2022/03/08 07:13:04;;;;;;;25.23;13.90;;;;;;;-0.69;72.96;102006.34;5063882;28;20040;-69
2022/03/08 07:15:30;;;;;;;25.83;14.00;;;;;;;-0.60;70.96;101993.09;5063267;28;20032;-69
2022/03/08 07:17:55;;;;;;;24.50;13.40;;;;;;;-0.40;69.52;102002.22;5060965;28;20040;-69
2022/03/08 07:20:21;;;;;;;24.55;13.15;;;;;;;-0.24;68.97;102001.56;5064311;28;20031;-69
2022/03/08 07:22:46;;;;;;;24.88;13.50;;;;;;;-0.08;67.48;102008.69;5064129;28;20028;-69
2022/03/08 07:25:13;;;;;;;24.88;13.52;;;;;;;0.07;66.14;102019.19;5064246;28;20105;-69
2022/03/08 07:27:38;;;;;;;25.98;13.02;;;;;;;0.16;64.98;102017.19;5061725;28;20028;-69
2022/03/08 07:30:06;;;;;;;24.45;13.00;;;;;;;0.28;64.15;102014.50;5063187;28;20032;-70
2022/03/08 07:32:31;;;;;;;24.95;13.60;;;;;;;0.39;64.13;102012.56;5063254;28;20037;-71
2022/03/08 07:34:57;;;;;;;27.00;14.00;;;;;;;0.48;64.38;102014.06;5063529;28;20460;-71
2022/03/08 07:37:23;;;;;;;26.23;12.90;;;;;;;0.53;63.32;102006.56;5063341;28;20020;-69
2022/03/08 07:39:48;;;;;;;24.60;12.95;;;;;;;0.61;62.94;102015.75;5063196;28;20028;-69
2022/03/08 07:42:13;;;;;;;23.90;12.82;;;;;;;0.73;61.98;102002.63;5062505;28;20041;-69
2022/03/08 07:44:40;;;;;;;24.92;13.20;;;;;;;0.91;60.49;102001.97;5063208;28;20467;-71
2022/03/08 07:47:05;;;;;;;25.52;12.77;;;;;;;1.00;59.21;102005.13;5063759;28;20539;-70
2022/03/08 07:49:30;;;;;;;23.35;12.73;;;;;;;0.98;59.90;101986.81;5060917;28;20119;-70
2022/03/08 07:51:56;;;;;;;24.05;12.48;;;;;;;1.04;59.70;101992.38;5063638;28;20065;-71
2022/03/08 07:54:22;;;;;;;23.98;12.73;;;;;;;1.11;59.48;101992.78;5063541;28;20056;-70
2022/03/08 07:56:47;;;;;;;24.33;12.95;;;;;;;1.04;58.47;101992.38;5064164;28;20029;-70
2022/03/08 07:59:13;;;;;;;24.42;13.05;;;;;;;1.18;59.20;102000.13;5061942;28;20038;-70
2022/03/08 08:01:39;;;;;;;24.05;12.98;;;;;;;1.31;59.63;102002.72;5063107;28;20079;-70
2022/03/08 08:04:04;;;;;;;24.50;12.85;;;;;;;1.50;57.55;102001.19;5063480;28;20063;-70
2022/03/08 08:06:29;;;;;;;24.42;12.88;;;;;;;1.70;57.16;102002.38;5063025;28;20475;-70
2022/03/08 08:08:55;;;;;;;24.48;12.80;;;;;;;1.79;57.48;102005.53;5061795;28;20033;-70
2022/03/08 08:11:20;;;;;;;24.50;12.60;;;;;;;1.95;56.54;101999.47;5064230;28;20564;-70
2022/03/08 08:13:48;;;;;;;23.20;12.23;;;;;;;2.10;54.15;101996.88;5063781;28;20060;-69
2022/03/08 08:16:13;;;;;;;23.55;12.38;;;;;;;2.20;54.51;102013.94;5063877;28;20479;-70
2022/03/08 08:18:39;;;;;;;24.00;12.57;;;;;;;2.32;54.92;102009.41;5061240;28;20037;-71
2022/03/08 08:21:05;;;;;;;25.05;12.57;;;;;;;2.26;53.76;102016.91;5063858;28;20074;-71
2022/03/08 08:23:31;;;;;;;24.10;12.60;;;;;;;2.39;54.27;102006.34;5063505;28;20028;-71
2022/03/08 08:25:56;;;;;;;24.40;12.52;;;;;;;2.58;53.98;102002.16;5063329;28;20490;-71
2022/03/08 08:28:21;;;;;;;23.95;12.60;;;;;;;2.65;52.18;102011.22;5060377;28;20124;-70
2022/03/08 08:30:47;;;;;;;24.10;12.00;;;;;;;2.77;53.25;102007.56;5065664;28;20111;-71
2022/03/08 08:33:12;;;;;;;23.20;12.27;;;;;;;2.91;53.22;102004.78;5067859;28;20040;-71
2022/03/08 08:35:38;;;;;;;26.05;12.85;;;;;;;2.99;51.15;102002.63;5068106;28;20056;-71
2022/03/08 08:38:05;;;;;;;23.33;12.10;;;;;;;3.14;51.41;101999.09;5075404;28;20071;-71
2022/03/08 08:40:31;;;;;;;23.23;11.48;;;;;;;3.13;51.31;101992.09;5075467;28;20025;-71
2022/03/08 08:42:57;;;;;;;23.15;11.82;;;;;;;3.19;50.87;101995.81;5075276;28;20103;-71
2022/03/08 08:45:22;;;;;;;22.98;10.95;;;;;;;3.31;51.36;102006.94;5075302;28;20021;-71
2022/03/08 08:47:48;;;;;;;23.42;11.02;;;;;;;3.48;49.65;102005.19;5075326;28;20074;-71
2022/03/08 08:50:13;;;;;;;22.70;10.82;;;;;;;3.69;49.42;101994.94;5075276;28;20052;-71
2022/03/08 08:52:39;;;;;;;22.33;11.00;;;;;;;3.76;49.36;101999.66;5071053;28;20020;-71
2022/03/08 08:55:05;;;;;;;22.67;11.02;;;;;;;3.89;48.63;101989.78;5075100;28;20064;-71
2022/03/08 08:57:30;;;;;;;23.05;11.25;;;;;;;4.01;47.95;101977.34;5074992;28;20044;-71
2022/03/08 08:59:55;;;;;;;24.27;11.43;;;;;;;4.12;46.76;101985.69;5075151;28;20032;-71
2022/03/08 09:02:21;;;;;;;22.60;10.55;;;;;;;4.30;47.07;101980.47;5075535;28;20083;-71
2022/03/08 09:04:46;;;;;;;22.77;10.70;;;;;;;4.41;45.72;101989.72;5074954;28;20475;-69
2022/03/08 09:07:12;;;;;;;22.83;11.05;;;;;;;4.66;45.14;101997.03;5074904;28;20047;-70
2022/03/08 09:09:37;;;;;;;21.95;10.68;;;;;;;4.75;45.02;101998.28;5075015;28;20056;-70
2022/03/08 09:12:03;;;;;;;22.70;10.25;;;;;;;5.00;44.81;101979.34;5074693;28;20028;-69
2022/03/08 09:14:28;;;;;;;21.42;10.05;;;;;;;5.22;43.59;101984.72;5073784;28;20124;-69
2022/03/08 09:16:54;;;;;;;21.77;10.73;;;;;;;5.39;43.12;101993.34;5071073;28;20068;-69
2022/03/08 09:19:19;;;;;;;22.65;10.70;;;;;;;5.66;42.97;101966.47;5074867;28;20036;-70
2022/03/08 09:21:45;;;;;;;23.23;10.38;;;;;;;5.66;41.88;101997.09;5074757;28;20491;-69
2022/03/08 09:24:10;;;;;;;21.95;10.18;;;;;;;5.63;41.97;101986.47;5074505;28;20046;-69
2022/03/08 09:26:35;;;;;;;22.25;9.88;;;;;;;5.61;41.70;101982.84;5074373;28;20029;-69
2022/03/08 09:29:01;;;;;;;22.70;10.10;;;;;;;5.79;41.71;101994.16;5074697;28;20033;-69
2022/03/08 09:31:26;;;;;;;21.67;10.20;;;;;;;6.19;41.26;101956.47;5074400;28;20321;-69
2022/03/08 09:33:52;;;;;;;22.50;9.60;;;;;;;6.50;39.59;101955.03;5074310;28;20017;-69
2022/03/08 09:36:18;;;;;;;23.90;10.35;;;;;;;6.28;39.60;101971.69;5074534;28;20070;-69
2022/03/08 09:38:44;;;;;;;21.42;9.60;;;;;;;6.21;39.19;101967.91;5072945;28;20032;-69
2022/03/08 09:41:11;;;;;;;24.45;10.25;;;;;;;6.20;39.13;101973.09;5069369;28;20021;-69
2022/03/08 09:43:37;;;;;;;23.27;10.65;;;;;;;6.39;40.18;101964.22;5074002;28;20028;-69
2022/03/08 09:46:04;;;;;;;21.77;9.18;;;;;;;6.73;40.10;101955.03;5073971;28;20059;-68
2022/03/08 09:48:29;;;;;;;22.98;9.93;;;;;;;7.10;37.91;101949.38;5074120;28;20063;-69
2022/03/08 09:51:01;;;;;;;21.80;9.57;;;;;;;7.32;38.24;101945.78;5074266;28;20056;-69
2022/03/08 09:53:29;;;;;;;22.38;9.80;;;;;;;7.86;37.15;101954.59;5074282;28;20038;-69
2022/03/08 09:55:59;;;;;;;21.83;9.65;;;;;;;8.38;36.37;101950.13;5074052;28;20032;-69
2022/03/08 09:58:25;;;;;;;21.25;9.70;;;;;;;8.49;35.17;101942.56;5074040;28;20463;-69
2022/03/08 10:00:52;;;;;;;21.17;9.90;;;;;;;8.50;35.16;101947.91;5073867;28;20025;-68
2022/03/08 10:03:29;;;;;;;21.02;9.23;;;;;;;8.52;35.07;101932.16;5073946;28;20383;-69
2022/03/08 10:05:55;;;;;;;22.45;9.98;;;;;;;8.78;34.46;101945.19;5068560;28;20555;-69
2022/03/08 10:08:21;;;;;;;21.08;8.90;;;;;;;9.11;34.14;101933.81;5065513;28;20043;-69
2022/03/08 10:10:59;;;;;;;20.38;8.93;;;;;;;9.03;34.29;101916.03;5065342;28;20039;-71
2022/03/08 10:13:32;;;;;;;21.50;9.20;;;;;;;9.22;34.85;101932.38;5065347;28;20068;-70
2022/03/08 10:16:34;;;;;;;21.50;9.35;;;;;;;10.25;32.12;101940.25;5065545;28;20044;-69
2022/03/08 10:19:02;;;;;;;20.85;8.80;;;;;;;10.18;32.08;101924.19;5041200;28;20044;-70
2022/03/08 10:21:38;;;;;;;22.33;9.23;;;;;;;9.91;31.14;101936.78;5042979;28;20163;-70
2022/03/08 10:24:13;;;;;;;23.02;9.30;;;;;;;9.87;31.44;101934.03;5041690;28;20496;-70
2022/03/08 10:26:57;;;;;;;22.42;9.52;;;;;;;10.20;32.04;101933.94;5045580;28;20036;-71
2022/03/08 10:29:28;;;;;;;20.45;9.50;;;;;;;10.27;30.46;101941.16;5039758;28;20072;-68
2022/03/08 10:32:05;;;;;;;21.25;8.80;;;;;;;11.23;31.21;101921.16;5042939;28;20236;-70
2022/03/08 10:34:31;;;;;;;21.63;9.18;;;;;;;10.99;30.52;101935.66;5043508;28;20098;-69
2022/03/08 10:37:12;;;;;;;20.40;8.98;;;;;;;11.29;30.48;101914.19;5039536;28;20476;-70
2022/03/08 10:40:04;;;;;;;22.10;9.93;;;;;;;11.76;29.85;101928.25;5045752;28;20156;-70
2022/03/08 10:42:38;;;;;;;21.73;9.40;;;;;;;11.39;29.68;101931.16;5043796;28;20075;-69
2022/03/08 10:45:08;;;;;;;21.30;9.75;;;;;;;11.45;29.63;101928.59;5040206;28;20025;-69
2022/03/08 10:47:40;;;;;;;21.35;8.65;;;;;;;11.81;29.55;101903.63;5041985;28;20029;-70
2022/03/08 10:50:06;;;;;;;21.90;8.75;;;;;;;11.69;29.92;101906.03;5040242;28;20037;-69
2022/03/08 10:52:38;;;;;;;21.45;9.05;;;;;;;11.91;29.23;101906.41;5041868;28;20484;-68
2022/03/08 10:55:13;;;;;;;21.63;9.35;;;;;;;11.98;29.57;101903.88;5053377;28;20493;-69
2022/03/08 10:57:55;;;;;;;21.75;9.25;;;;;;;12.10;28.58;101915.56;5071560;28;20491;-70
2022/03/08 11:00:26;;;;;;;22.27;9.20;;;;;;;12.33;28.33;101910.59;5072922;28;20032;-69
2022/03/08 11:02:58;;;;;;;20.65;9.30;;;;;;;12.98;28.23;101912.31;5072803;28;20044;-69
2022/03/08 11:05:28;;;;;;;21.03;9.00;;;;;;;13.73;26.95;101909.53;5072679;28;20051;-69
2022/03/08 11:07:55;;;;;;;20.45;8.88;;;;;;;14.08;26.00;101915.97;5068996;28;20035;-70